sensor_id;sensor_type;location;lat;lon;timestamp;pressure;altitude;pressure_sealevel;temperature;humidity
55077;BME280;40971;44.702;11.030;2022-12-18T00:02:50;102534.91;;;4.87;100.00
55077;BME280;40971;44.702;11.030;2022-12-18T00:05:16;102546.97;;;4.85;100.00
55077;BME280;40971;44.702;11.030;2022-12-18T00:07:41;102556.47;;;4.78;100.00
55077;BME280;40971;44.702;11.030;2022-12-18T00:10:07;102550.44;;;4.75;100.00
55077;BME280;40971;44.702;11.030;2022-12-18T00:12:33;102562.53;;;4.73;100.00
55077;BME280;40971;44.702;11.030;2022-12-18T00:14:58;102509.91;;;4.40;100.00
55077;BME280;40971;44.702;11.030;2022-12-18T00:17:23;102525.44;;;4.48;100.00
55077;BME280;40971;44.702;11.030;2022-12-18T00:19:49;102567.69;;;4.62;100.00
55077;BME280;40971;44.702;11.030;2022-12-18T00:22:17;102534.06;;;4.45;100.00
55077;BME280;40971;44.702;11.030;2022-12-18T00:24:43;102591.00;;;4.71;100.00
55077;BME280;40971;44.702;11.030;2022-12-18T00:27:08;102581.47;;;4.50;100.00
55077;BME280;40971;44.702;11.030;2022-12-18T00:29:34;102575.44;;;4.45;100.00
55077;BME280;40971;44.702;11.030;2022-12-18T00:31:59;102567.69;;;4.53;100.00
55077;BME280;40971;44.702;11.030;2022-12-18T00:39:52;102596.16;;;4.59;100.00
55077;BME280;40971;44.702;11.030;2022-12-18T00:42:18;102578.91;;;4.44;100.00
55077;BME280;40971;44.702;11.030;2022-12-18T00:45:02;102592.69;;;4.39;100.00
55077;BME280;40971;44.702;11.030;2022-12-18T00:47:28;102591.84;;;4.37;100.00
55077;BME280;40971;44.702;11.030;2022-12-18T00:49:53;102579.72;;;4.14;100.00
55077;BME280;40971;44.702;11.030;2022-12-18T00:52:18;102596.94;;;4.11;100.00
55077;BME280;40971;44.702;11.030;2022-12-18T00:54:44;102575.41;;;4.16;100.00
55077;BME280;40971;44.702;11.030;2022-12-18T00:57:09;102586.59;;;4.03;100.00
55077;BME280;40971;44.702;11.030;2022-12-18T00:59:53;102596.03;;;3.98;100.00
55077;BME280;40971;44.702;11.030;2022-12-18T01:02:19;102590.00;;;3.91;100.00
55077;BME280;40971;44.702;11.030;2022-12-18T01:04:44;102592.56;;;3.90;100.00
55077;BME280;40971;44.702;11.030;2022-12-18T01:07:09;102599.41;;;3.82;100.00
55077;BME280;40971;44.702;11.030;2022-12-18T01:09:35;102575.22;;;3.58;100.00
55077;BME280;40971;44.702;11.030;2022-12-18T01:12:19;102607.09;;;3.60;100.00
55077;BME280;40971;44.702;11.030;2022-12-18T01:14:44;102598.38;;;3.42;100.00
55077;BME280;40971;44.702;11.030;2022-12-18T01:17:10;102602.75;;;3.55;100.00
55077;BME280;40971;44.702;11.030;2022-12-18T01:19:35;102607.94;;;3.62;100.00
55077;BME280;40971;44.702;11.030;2022-12-18T01:22:01;102601.84;;;3.44;100.00
55077;BME280;40971;44.702;11.030;2022-12-18T01:24:26;102615.59;;;3.41;100.00
55077;BME280;40971;44.702;11.030;2022-12-18T01:26:52;102595.63;;;3.19;100.00
55077;BME280;40971;44.702;11.030;2022-12-18T01:29:17;102599.91;;;3.14;100.00
55077;BME280;40971;44.702;11.030;2022-12-18T01:31:43;102608.66;;;3.34;100.00
55077;BME280;40971;44.702;11.030;2022-12-18T01:34:09;102578.38;;;3.10;100.00
55077;BME280;40971;44.702;11.030;2022-12-18T01:36:36;102626.69;;;3.26;100.00
55077;BME280;40971;44.702;11.030;2022-12-18T01:39:11;102609.38;;;3.12;100.00
55077;BME280;40971;44.702;11.030;2022-12-18T01:41:37;102630.88;;;3.12;100.00
55077;BME280;40971;44.702;11.030;2022-12-18T01:50:24;102642.47;;;2.58;100.00
55077;BME280;40971;44.702;11.030;2022-12-18T01:52:55;102640.66;;;2.51;100.00
55077;BME280;40971;44.702;11.030;2022-12-18T01:55:25;102650.09;;;2.49;100.00
55077;BME280;40971;44.702;11.030;2022-12-18T02:00:39;102655.16;;;2.35;100.00
55077;BME280;40971;44.702;11.030;2022-12-18T02:03:04;102644.75;;;2.31;100.00
55077;BME280;40971;44.702;11.030;2022-12-18T02:05:36;102672.44;;;2.46;100.00
55077;BME280;40971;44.702;11.030;2022-12-18T02:16:15;102675.94;;;1.81;100.00
55077;BME280;40971;44.702;11.030;2022-12-18T02:18:48;102661.25;;;1.74;100.00
55077;BME280;40971;44.702;11.030;2022-12-18T02:24:35;102691.81;;;2.13;100.00
55077;BME280;40971;44.702;11.030;2022-12-18T02:27:08;102672.75;;;2.00;100.00
55077;BME280;40971;44.702;11.030;2022-12-18T02:29:55;102703.81;;;2.11;100.00
55077;BME280;40971;44.702;11.030;2022-12-18T02:32:27;102687.88;;;1.73;100.00
55077;BME280;40971;44.702;11.030;2022-12-18T02:34:56;102707.75;;;1.85;100.00
55077;BME280;40971;44.702;11.030;2022-12-18T02:37:23;102696.66;;;1.87;100.00
55077;BME280;40971;44.702;11.030;2022-12-18T02:39:51;102695.78;;;1.87;100.00
55077;BME280;40971;44.702;11.030;2022-12-18T02:42:19;102706.34;;;2.05;100.00
55077;BME280;40971;44.702;11.030;2022-12-18T02:44:50;102693.47;;;2.08;100.00
55077;BME280;40971;44.702;11.030;2022-12-18T02:47:18;102711.78;;;2.29;100.00
55077;BME280;40971;44.702;11.030;2022-12-18T02:58:03;102725.69;;;2.42;100.00
55077;BME280;40971;44.702;11.030;2022-12-18T03:00:42;102706.78;;;2.43;100.00
55077;BME280;40971;44.702;11.030;2022-12-18T03:06:03;102736.63;;;2.21;100.00
55077;BME280;40971;44.702;11.030;2022-12-18T03:08:38;102729.72;;;2.19;100.00
55077;BME280;40971;44.702;11.030;2022-12-18T03:11:07;102723.78;;;2.27;100.00
55077;BME280;40971;44.702;11.030;2022-12-18T03:13:40;102718.50;;;2.18;100.00
55077;BME280;40971;44.702;11.030;2022-12-18T03:16:11;102729.06;;;2.36;100.00
55077;BME280;40971;44.702;11.030;2022-12-18T03:18:47;102735.00;;;2.31;100.00
55077;BME280;40971;44.702;11.030;2022-12-18T03:24:00;102735.97;;;2.39;100.00
55077;BME280;40971;44.702;11.030;2022-12-18T03:26:29;102712.63;;;2.28;100.00
55077;BME280;40971;44.702;11.030;2022-12-18T03:29:03;102736.94;;;2.50;100.00
55077;BME280;40971;44.702;11.030;2022-12-18T03:31:31;102743.78;;;2.47;100.00
55077;BME280;40971;44.702;11.030;2022-12-18T03:34:01;102712.59;;;2.25;100.00
55077;BME280;40971;44.702;11.030;2022-12-18T03:36:27;102746.28;;;2.39;100.00
55077;BME280;40971;44.702;11.030;2022-12-18T03:38:53;102741.13;;;2.37;100.00
55077;BME280;40971;44.702;11.030;2022-12-18T03:55:10;102725.88;;;2.59;100.00
55077;BME280;40971;44.702;11.030;2022-12-18T03:57:37;102749.25;;;2.71;100.00
55077;BME280;40971;44.702;11.030;2022-12-18T04:00:07;102745.72;;;2.66;100.00
55077;BME280;40971;44.702;11.030;2022-12-18T04:02:34;102754.44;;;2.74;100.00
55077;BME280;40971;44.702;11.030;2022-12-18T04:05:04;102737.09;;;2.61;100.00
55077;BME280;40971;44.702;11.030;2022-12-18T04:07:51;102743.22;;;2.70;100.00
55077;BME280;40971;44.702;11.030;2022-12-18T04:10:17;102750.28;;;2.88;100.00
55077;BME280;40971;44.702;11.030;2022-12-18T04:12:43;102756.31;;;2.89;100.00
55077;BME280;40971;44.702;11.030;2022-12-18T04:15:09;102747.69;;;2.87;100.00
55077;BME280;40971;44.702;11.030;2022-12-18T04:17:35;102778.84;;;3.04;100.00
55077;BME280;40971;44.702;11.030;2022-12-18T04:20:01;102772.69;;;2.91;100.00
55077;BME280;40971;44.702;11.030;2022-12-18T04:22:27;102777.06;;;3.01;100.00
55077;BME280;40971;44.702;11.030;2022-12-18T04:24:52;102782.28;;;3.06;100.00
55077;BME280;40971;44.702;11.030;2022-12-18T04:27:18;102799.56;;;3.11;100.00
55077;BME280;40971;44.702;11.030;2022-12-18T04:29:43;102813.34;;;3.13;100.00
55077;BME280;40971;44.702;11.030;2022-12-18T04:32:09;102785.56;;;2.88;100.00
55077;BME280;40971;44.702;11.030;2022-12-18T04:34:34;102796.81;;;2.96;100.00
55077;BME280;40971;44.702;11.030;2022-12-18T04:37:00;102752.59;;;2.65;100.00
55077;BME280;40971;44.702;11.030;2022-12-18T04:39:26;102792.44;;;2.89;100.00
55077;BME280;40971;44.702;11.030;2022-12-18T04:41:51;102758.63;;;2.66;100.00
55077;BME280;40971;44.702;11.030;2022-12-18T04:44:17;102827.94;;;3.08;100.00
55077;BME280;40971;44.702;11.030;2022-12-18T04:46:42;102801.91;;;2.88;100.00
55077;BME280;40971;44.702;11.030;2022-12-18T04:49:07;102794.16;;;2.87;100.00
55077;BME280;40971;44.702;11.030;2022-12-18T04:51:33;102834.84;;;3.12;100.00
55077;BME280;40971;44.702;11.030;2022-12-18T04:53:58;102827.97;;;3.13;100.00
55077;BME280;40971;44.702;11.030;2022-12-18T04:56:24;102811.56;;;3.06;100.00
55077;BME280;40971;44.702;11.030;2022-12-18T04:58:49;102823.75;;;3.19;100.00
55077;BME280;40971;44.702;11.030;2022-12-18T05:01:16;102840.13;;;3.23;100.00
55077;BME280;40971;44.702;11.030;2022-12-18T05:03:43;102834.03;;;3.16;100.00
55077;BME280;40971;44.702;11.030;2022-12-18T05:06:09;102833.97;;;3.12;100.00
55077;BME280;40971;44.702;11.030;2022-12-18T05:08:35;102817.41;;;2.91;100.00
55077;BME280;40971;44.702;11.030;2022-12-18T05:11:03;102845.00;;;2.98;100.00
55077;BME280;40971;44.702;11.030;2022-12-18T05:13:29;102820.66;;;2.74;100.00
55077;BME280;40971;44.702;11.030;2022-12-18T05:15:55;102843.25;;;2.93;100.00
55077;BME280;40971;44.702;11.030;2022-12-18T05:18:24;102863.88;;;2.91;100.00
55077;BME280;40971;44.702;11.030;2022-12-18T05:20:51;102855.16;;;2.83;100.00
55077;BME280;40971;44.702;11.030;2022-12-18T05:23:17;102845.56;;;2.71;100.00
55077;BME280;40971;44.702;11.030;2022-12-18T05:25:52;102871.38;;;2.73;100.00
55077;BME280;40971;44.702;11.030;2022-12-18T05:28:18;102864.59;;;2.81;100.00
55077;BME280;40971;44.702;11.030;2022-12-18T05:30:50;102863.00;;;2.91;100.00
55077;BME280;40971;44.702;11.030;2022-12-18T05:33:17;102859.53;;;2.87;100.00
55077;BME280;40971;44.702;11.030;2022-12-18T05:35:43;102882.69;;;2.83;100.00
55077;BME280;40971;44.702;11.030;2022-12-18T05:38:28;102889.47;;;2.75;100.00
55077;BME280;40971;44.702;11.030;2022-12-18T05:40:55;102881.53;;;2.61;100.00
55077;BME280;40971;44.702;11.030;2022-12-18T05:46:06;102879.75;;;2.54;100.00
55077;BME280;40971;44.702;11.030;2022-12-18T05:48:32;102888.47;;;2.65;100.00
55077;BME280;40971;44.702;11.030;2022-12-18T05:51:04;102904.78;;;2.64;100.00
55077;BME280;40971;44.702;11.030;2022-12-18T05:53:31;102917.69;;;2.64;100.00
55077;BME280;40971;44.702;11.030;2022-12-18T05:58:44;102900.53;;;2.66;100.00
55077;BME280;40971;44.702;11.030;2022-12-18T06:01:13;102902.03;;;2.52;100.00
55077;BME280;40971;44.702;11.030;2022-12-18T06:03:39;102915.91;;;2.58;100.00
55077;BME280;40971;44.702;11.030;2022-12-18T06:06:13;102918.66;;;2.69;100.00
55077;BME280;40971;44.702;11.030;2022-12-18T06:08:38;102898.66;;;2.53;100.00
55077;BME280;40971;44.702;11.030;2022-12-18T06:11:04;102896.97;;;2.56;100.00
55077;BME280;40971;44.702;11.030;2022-12-18T06:13:29;102902.97;;;2.55;100.00
55077;BME280;40971;44.702;11.030;2022-12-18T06:15:55;102915.94;;;2.61;100.00
55077;BME280;40971;44.702;11.030;2022-12-18T06:18:20;102909.94;;;2.62;100.00
55077;BME280;40971;44.702;11.030;2022-12-18T06:20:54;102917.38;;;2.41;100.00
55077;BME280;40971;44.702;11.030;2022-12-18T06:23:20;102934.66;;;2.48;100.00
55077;BME280;40971;44.702;11.030;2022-12-18T06:26:05;102950.00;;;2.39;100.00
55077;BME280;40971;44.702;11.030;2022-12-18T06:28:31;102939.41;;;2.19;100.00
55077;BME280;40971;44.702;11.030;2022-12-18T06:30:56;102948.09;;;2.27;100.00
55077;BME280;40971;44.702;11.030;2022-12-18T06:33:26;102944.75;;;2.34;100.00
55077;BME280;40971;44.702;11.030;2022-12-18T06:35:52;102936.84;;;2.21;100.00
55077;BME280;40971;44.702;11.030;2022-12-18T06:38:17;102963.63;;;2.30;100.00
55077;BME280;40971;44.702;11.030;2022-12-18T06:40:43;102973.06;;;2.30;100.00
55077;BME280;40971;44.702;11.030;2022-12-18T06:43:10;102972.03;;;2.19;100.00
55077;BME280;40971;44.702;11.030;2022-12-18T06:45:36;102946.06;;;2.06;100.00
55077;BME280;40971;44.702;11.030;2022-12-18T06:48:02;102975.47;;;2.19;100.00
55077;BME280;40971;44.702;11.030;2022-12-18T06:50:27;102977.91;;;2.11;100.00
55077;BME280;40971;44.702;11.030;2022-12-18T06:52:53;102981.28;;;2.06;100.00
55077;BME280;40971;44.702;11.030;2022-12-18T06:55:18;102984.75;;;2.08;100.00
55077;BME280;40971;44.702;11.030;2022-12-18T06:57:44;102987.28;;;2.06;100.00
55077;BME280;40971;44.702;11.030;2022-12-18T07:00:10;102984.38;;;1.87;100.00
55077;BME280;40971;44.702;11.030;2022-12-18T07:02:35;102970.91;;;1.56;100.00
55077;BME280;40971;44.702;11.030;2022-12-18T07:05:01;103010.88;;;1.83;100.00
55077;BME280;40971;44.702;11.030;2022-12-18T07:07:26;102959.59;;;1.49;100.00
55077;BME280;40971;44.702;11.030;2022-12-18T07:12:36;103025.50;;;1.84;100.00
55077;BME280;40971;44.702;11.030;2022-12-18T07:15:01;102991.69;;;1.67;100.00
55077;BME280;40971;44.702;11.030;2022-12-18T07:17:27;103025.75;;;1.96;100.00
55077;BME280;40971;44.702;11.030;2022-12-18T07:19:54;103037.16;;;2.08;100.00
55077;BME280;40971;44.702;11.030;2022-12-18T07:22:20;103000.75;;;1.90;100.00
55077;BME280;40971;44.702;11.030;2022-12-18T07:24:45;103012.75;;;1.90;100.00
55077;BME280;40971;44.702;11.030;2022-12-18T07:27:11;103010.22;;;1.93;100.00
55077;BME280;40971;44.702;11.030;2022-12-18T07:29:55;102998.34;;;2.01;100.00
55077;BME280;40971;44.702;11.030;2022-12-18T07:32:20;103027.97;;;2.24;100.00
55077;BME280;40971;44.702;11.030;2022-12-18T07:34:46;103006.28;;;2.11;100.00
55077;BME280;40971;44.702;11.030;2022-12-18T07:37:11;103038.38;;;2.30;100.00
55077;BME280;40971;44.702;11.030;2022-12-18T07:39:37;103051.56;;;2.47;100.00
55077;BME280;40971;44.702;11.030;2022-12-18T07:42:02;102990.91;;;2.18;100.00
55077;BME280;40971;44.702;11.030;2022-12-18T07:44:46;103045.03;;;2.67;100.00
55077;BME280;40971;44.702;11.030;2022-12-18T07:47:11;103036.34;;;2.62;100.00
55077;BME280;40971;44.702;11.030;2022-12-18T07:49:37;103050.28;;;2.72;100.00
55077;BME280;40971;44.702;11.030;2022-12-18T07:52:21;103064.94;;;2.75;100.00
55077;BME280;40971;44.702;11.030;2022-12-18T07:54:46;103047.72;;;2.75;100.00
55077;BME280;40971;44.702;11.030;2022-12-18T07:57:14;103036.75;;;2.87;100.00
55077;BME280;40971;44.702;11.030;2022-12-18T07:59:58;103042.09;;;3.02;100.00
55077;BME280;40971;44.702;11.030;2022-12-18T08:02:23;103041.41;;;3.14;100.00
55077;BME280;40971;44.702;11.030;2022-12-18T08:04:49;103032.91;;;3.19;100.00
55077;BME280;40971;44.702;11.030;2022-12-18T08:07:14;103054.69;;;3.40;100.00
55077;BME280;40971;44.702;11.030;2022-12-18T08:09:39;103062.41;;;3.37;100.00
55077;BME280;40971;44.702;11.030;2022-12-18T08:12:24;103080.75;;;3.56;100.00
55077;BME280;40971;44.702;11.030;2022-12-18T08:14:49;103070.31;;;3.50;100.00
55077;BME280;40971;44.702;11.030;2022-12-18T08:17:15;103060.63;;;3.36;100.00
55077;BME280;40971;44.702;11.030;2022-12-18T08:19:40;103073.03;;;3.59;100.00
55077;BME280;40971;44.702;11.030;2022-12-18T08:22:06;103085.22;;;3.70;100.00
55077;BME280;40971;44.702;11.030;2022-12-18T08:24:31;103070.69;;;3.81;100.00
55077;BME280;40971;44.702;11.030;2022-12-18T08:27:15;103088.09;;;3.94;100.00
55077;BME280;40971;44.702;11.030;2022-12-18T08:29:59;103111.38;;;3.96;100.00
55077;BME280;40971;44.702;11.030;2022-12-18T08:32:26;103123.38;;;3.89;100.00
55077;BME280;40971;44.702;11.030;2022-12-18T08:34:52;103118.75;;;3.67;100.00
55077;BME280;40971;44.702;11.030;2022-12-18T08:37:17;103110.06;;;3.60;100.00
55077;BME280;40971;44.702;11.030;2022-12-18T08:39:43;103111.59;;;3.47;100.00
55077;BME280;40971;44.702;11.030;2022-12-18T08:42:08;103103.66;;;3.32;100.00
55077;BME280;40971;44.702;11.030;2022-12-18T08:44:52;103131.41;;;3.47;100.00
55077;BME280;40971;44.702;11.030;2022-12-18T08:47:36;103133.91;;;3.39;100.00
55077;BME280;40971;44.702;11.030;2022-12-18T08:50:02;103151.22;;;3.48;100.00
55077;BME280;40971;44.702;11.030;2022-12-18T08:52:27;103132.00;;;3.27;100.00
55077;BME280;40971;44.702;11.030;2022-12-18T08:54:53;103139.72;;;3.26;100.00
55077;BME280;40971;44.702;11.030;2022-12-18T08:57:18;103136.25;;;3.24;100.00
55077;BME280;40971;44.702;11.030;2022-12-18T08:59:44;103157.81;;;3.26;100.00
55077;BME280;40971;44.702;11.030;2022-12-18T09:02:12;103158.59;;;3.20;100.00
55077;BME280;40971;44.702;11.030;2022-12-18T09:04:38;103142.84;;;3.04;100.00
55077;BME280;40971;44.702;11.030;2022-12-18T09:07:04;103170.69;;;3.23;100.00
55077;BME280;40971;44.702;11.030;2022-12-18T09:12:14;103163.06;;;3.33;100.00
55077;BME280;40971;44.702;11.030;2022-12-18T09:17:23;103172.91;;;3.56;100.00
55077;BME280;40971;44.702;11.030;2022-12-18T09:19:49;103151.44;;;3.63;100.00
55077;BME280;40971;44.702;11.030;2022-12-18T09:22:14;103158.53;;;3.76;100.00
55077;BME280;40971;44.702;11.030;2022-12-18T09:24:41;103147.41;;;3.83;100.00
55077;BME280;40971;44.702;11.030;2022-12-18T09:27:06;103160.47;;;3.92;100.00
55077;BME280;40971;44.702;11.030;2022-12-18T09:29:32;103164.06;;;4.05;100.00
55077;BME280;40971;44.702;11.030;2022-12-18T09:31:57;103135.63;;;4.05;100.00
55077;BME280;40971;44.702;11.030;2022-12-18T09:34:23;103157.44;;;4.30;100.00
55077;BME280;40971;44.702;11.030;2022-12-18T09:36:50;103150.59;;;4.35;100.00
55077;BME280;40971;44.702;11.030;2022-12-18T09:39:15;103155.03;;;4.47;100.00
55077;BME280;40971;44.702;11.030;2022-12-18T09:41:59;103149.00;;;4.49;100.00
55077;BME280;40971;44.702;11.030;2022-12-18T09:44:28;103164.78;;;4.72;100.00
55077;BME280;40971;44.702;11.030;2022-12-18T09:46:59;103179.59;;;4.87;100.00
55077;BME280;40971;44.702;11.030;2022-12-18T09:49:30;103148.53;;;4.87;100.00
55077;BME280;40971;44.702;11.030;2022-12-18T09:52:34;103178.97;;;5.17;100.00
55077;BME280;40971;44.702;11.030;2022-12-18T09:57:47;103147.94;;;5.25;100.00
55077;BME280;40971;44.702;11.030;2022-12-18T10:00:23;103147.88;;;5.20;100.00
55077;BME280;40971;44.702;11.030;2022-12-18T10:02:49;103124.50;;;5.06;100.00
55077;BME280;40971;44.702;11.030;2022-12-18T10:08:13;103147.09;;;5.27;100.00
55077;BME280;40971;44.702;11.030;2022-12-18T10:10:52;103117.66;;;5.16;100.00
55077;BME280;40971;44.702;11.030;2022-12-18T10:22:17;103129.91;;;5.40;100.00
55077;BME280;40971;44.702;11.030;2022-12-18T10:24:59;103128.19;;;5.40;100.00
55077;BME280;40971;44.702;11.030;2022-12-18T10:27:27;103117.81;;;5.43;100.00
55077;BME280;40971;44.702;11.030;2022-12-18T10:29:54;103123.09;;;5.60;100.00
55077;BME280;40971;44.702;11.030;2022-12-18T10:32:30;103130.94;;;5.72;100.00
55077;BME280;40971;44.702;11.030;2022-12-18T10:34:56;103148.25;;;5.83;100.00
55077;BME280;40971;44.702;11.030;2022-12-18T10:37:24;103093.66;;;5.48;100.00
55077;BME280;40971;44.702;11.030;2022-12-18T10:40:12;103108.50;;;5.78;100.00
55077;BME280;40971;44.702;11.030;2022-12-18T10:42:38;103125.78;;;5.82;100.00
55077;BME280;40971;44.702;11.030;2022-12-18T10:45:15;103126.66;;;5.81;100.00
55077;BME280;40971;44.702;11.030;2022-12-18T10:47:48;103109.34;;;5.81;100.00
55077;BME280;40971;44.702;11.030;2022-12-18T10:50:34;103142.34;;;6.07;100.00
55077;BME280;40971;44.702;11.030;2022-12-18T10:53:30;103124.22;;;6.19;100.00
55077;BME280;40971;44.702;11.030;2022-12-18T10:55:59;103105.09;;;5.89;100.00
55077;BME280;40971;44.702;11.030;2022-12-18T11:06:13;103140.69;;;6.25;100.00
55077;BME280;40971;44.702;11.030;2022-12-18T11:08:41;103088.72;;;6.01;100.00
55077;BME280;40971;44.702;11.030;2022-12-18T11:11:20;103109.50;;;6.16;100.00
55077;BME280;40971;44.702;11.030;2022-12-18T11:14:06;103132.91;;;6.34;100.00
55077;BME280;40971;44.702;11.030;2022-12-18T11:16:45;103113.88;;;6.31;100.00
55077;BME280;40971;44.702;11.030;2022-12-18T11:19:30;103132.91;;;6.38;100.00
55077;BME280;40971;44.702;11.030;2022-12-18T11:21:57;103122.50;;;6.24;100.00
55077;BME280;40971;44.702;11.030;2022-12-18T11:24:28;103137.25;;;6.40;100.00
55077;BME280;40971;44.702;11.030;2022-12-18T11:27:15;103132.03;;;6.32;100.00
55077;BME280;40971;44.702;11.030;2022-12-18T11:29:42;103133.75;;;6.38;100.00
55077;BME280;40971;44.702;11.030;2022-12-18T11:32:29;103111.28;;;6.31;100.00
55077;BME280;40971;44.702;11.030;2022-12-18T11:35:19;103137.25;;;6.45;100.00
55077;BME280;40971;44.702;11.030;2022-12-18T11:37:51;103132.97;;;6.59;100.00
55077;BME280;40971;44.702;11.030;2022-12-18T11:40:24;103108.69;;;6.51;100.00
55077;BME280;40971;44.702;11.030;2022-12-18T11:43:34;103134.72;;;6.72;100.00
55077;BME280;40971;44.702;11.030;2022-12-18T11:46:27;103125.16;;;6.71;100.00
55077;BME280;40971;44.702;11.030;2022-12-18T11:54:28;103105.25;;;6.94;100.00
55077;BME280;40971;44.702;11.030;2022-12-18T11:57:27;103107.81;;;7.04;100.00
55077;BME280;40971;44.702;11.030;2022-12-18T12:03:14;103107.81;;;7.23;100.00
55077;BME280;40971;44.702;11.030;2022-12-18T12:12:13;103095.66;;;7.30;100.00
55077;BME280;40971;44.702;11.030;2022-12-18T12:17:29;103109.53;;;7.32;100.00
55077;BME280;40971;44.702;11.030;2022-12-18T12:20:06;103108.63;;;7.36;100.00
55077;BME280;40971;44.702;11.030;2022-12-18T12:31:11;103096.50;;;7.46;100.00
55077;BME280;40971;44.702;11.030;2022-12-18T12:39:37;103099.88;;;7.66;100.00
55077;BME280;40971;44.702;11.030;2022-12-18T12:42:06;103092.94;;;7.73;100.00
55077;BME280;40971;44.702;11.030;2022-12-18T12:44:58;103102.44;;;7.77;100.00
55077;BME280;40971;44.702;11.030;2022-12-18T12:47:30;103099.75;;;7.89;100.00
55077;BME280;40971;44.702;11.030;2022-12-18T12:49:59;103097.19;;;7.86;100.00
55077;BME280;40971;44.702;11.030;2022-12-18T12:54:56;103097.94;;;8.05;100.00
55077;BME280;40971;44.702;11.030;2022-12-18T12:57:39;103100.50;;;8.14;100.00
55077;BME280;40971;44.702;11.030;2022-12-18T13:00:09;103103.06;;;8.26;100.00
55077;BME280;40971;44.702;11.030;2022-12-18T13:05:39;103112.50;;;8.46;100.00
55077;BME280;40971;44.702;11.030;2022-12-18T13:08:33;103111.59;;;8.51;100.00
55077;BME280;40971;44.702;11.030;2022-12-18T13:10:58;103092.66;;;8.20;100.00
55077;BME280;40971;44.702;11.030;2022-12-18T13:13:54;103103.78;;;8.50;100.00
55077;BME280;40971;44.702;11.030;2022-12-18T13:16:24;103105.53;;;8.49;100.00
55077;BME280;40971;44.702;11.030;2022-12-18T13:18:57;103089.91;;;8.49;100.00
55077;BME280;40971;44.702;11.030;2022-12-18T13:21:42;103105.44;;;8.61;100.00
55077;BME280;40971;44.702;11.030;2022-12-18T13:26:48;103095.78;;;8.71;100.00
55077;BME280;40971;44.702;11.030;2022-12-18T13:32:19;103103.47;;;8.86;100.00
55077;BME280;40971;44.702;11.030;2022-12-18T13:34:45;103074.06;;;8.75;100.00
55077;BME280;40971;44.702;11.030;2022-12-18T13:39:58;103088.13;;;8.57;100.00
55077;BME280;40971;44.702;11.030;2022-12-18T13:45:37;103099.41;;;8.53;100.00
55077;BME280;40971;44.702;11.030;2022-12-18T13:48:04;103085.38;;;8.71;100.00
55077;BME280;40971;44.702;11.030;2022-12-18T13:50:29;103083.94;;;8.30;100.00
55077;BME280;40971;44.702;11.030;2022-12-18T13:52:55;103086.50;;;8.36;100.00
55077;BME280;40971;44.702;11.030;2022-12-18T13:55:22;103080.50;;;8.22;100.00
55077;BME280;40971;44.702;11.030;2022-12-18T13:57:47;103060.81;;;7.80;100.00
55077;BME280;40971;44.702;11.030;2022-12-18T14:02:51;103095.94;;;8.53;100.00
55077;BME280;40971;44.702;11.030;2022-12-18T14:05:37;103082.31;;;8.12;100.00
55077;BME280;40971;44.702;11.030;2022-12-18T14:08:10;103073.78;;;7.91;100.00
55077;BME280;40971;44.702;11.030;2022-12-18T14:10:43;103085.91;;;7.87;100.00
55077;BME280;40971;44.702;11.030;2022-12-18T14:13:11;103104.00;;;8.13;100.00
55077;BME280;40971;44.702;11.030;2022-12-18T14:15:42;103090.16;;;8.08;100.00
55077;BME280;40971;44.702;11.030;2022-12-18T14:21:04;103104.94;;;7.98;100.00
55077;BME280;40971;44.702;11.030;2022-12-18T14:26:25;103107.66;;;7.74;100.00
55077;BME280;40971;44.702;11.030;2022-12-18T14:28:50;103123.31;;;7.59;100.00
55077;BME280;40971;44.702;11.030;2022-12-18T14:31:22;103119.03;;;7.45;100.00
55077;BME280;40971;44.702;11.030;2022-12-18T14:33:48;103100.84;;;7.42;100.00
55077;BME280;40971;44.702;11.030;2022-12-18T14:36:32;103108.56;;;7.62;100.00
55077;BME280;40971;44.702;11.030;2022-12-18T14:38:58;103111.25;;;7.30;100.00
55077;BME280;40971;44.702;11.030;2022-12-18T14:41:25;103115.63;;;7.14;100.00
55077;BME280;40971;44.702;11.030;2022-12-18T14:43:52;103113.03;;;6.99;100.00
55077;BME280;40971;44.702;11.030;2022-12-18T14:46:39;103110.44;;;6.96;100.00
55077;BME280;40971;44.702;11.030;2022-12-18T14:51:52;103107.84;;;6.85;100.00
55077;BME280;40971;44.702;11.030;2022-12-18T14:54:19;103094.84;;;6.72;100.00
55077;BME280;40971;44.702;11.030;2022-12-18T14:57:06;103100.94;;;6.74;100.00
55077;BME280;40971;44.702;11.030;2022-12-18T14:59:40;103097.44;;;6.52;100.00
55077;BME280;40971;44.702;11.030;2022-12-18T15:02:21;103110.44;;;6.49;100.00
55077;BME280;40971;44.702;11.030;2022-12-18T15:04:47;103114.72;;;6.28;100.00
55077;BME280;40971;44.702;11.030;2022-12-18T15:07:20;103092.16;;;6.01;100.00
55077;BME280;40971;44.702;11.030;2022-12-18T15:12:45;103122.47;;;6.09;100.00
55077;BME280;40971;44.702;11.030;2022-12-18T15:20:27;103099.13;;;6.21;100.00
55077;BME280;40971;44.702;11.030;2022-12-18T15:22:53;103117.31;;;6.27;100.00
55077;BME280;40971;44.702;11.030;2022-12-18T15:25:34;103125.06;;;6.21;100.00
55077;BME280;40971;44.702;11.030;2022-12-18T15:28:02;103129.41;;;6.16;100.00
55077;BME280;40971;44.702;11.030;2022-12-18T15:30:27;103121.56;;;6.00;100.00
55077;BME280;40971;44.702;11.030;2022-12-18T15:33:16;103138.00;;;5.99;100.00
55077;BME280;40971;44.702;11.030;2022-12-18T15:35:42;103140.41;;;5.69;100.00